Terminal Aerodrome Forecast
Issued by NWS St Louis, MO

Home | Current Version | Previous Version | Text Only | Print | Product List | Glossary On
Versions: 1 2 3 4 5 6 7 8 9 10 11 12 13 14 15 16 17 18 19 20 21
535
FTUS43 KLSX 272337
TAFCOU
TAF
KCOU 272337Z 2800/2824 VRB05KT P6SM OVC150
     FM280200 09006KT P6SM OVC090
     FM280600 10009KT P6SM VCSH OVC070
      TEMPO 2810/2814 4SM -SHRA OVC035
     FM281400 12013KT 6SM -RA OVC015
     FM281600 15011KT P6SM OVC025=

USA.gov is the U.S. government's official web portal to all federal, state and local government web resources and services.